Time;durP1;ratioP1;P1;durP2;ratioP2;P2;SDS_P1;SDS_P2;PMS_P1;PMS_P2;Temp;Humidity;BMP_temperature;BMP_pressure;BME280_temperature;BME280_humidity;BME280_pressure;Samples;Min_cycle;Max_cycle;Signal;HPM_P1;HPM_P2
2023/09/12 00:00:32;;;;;;;5.70;2.62;;;;;;;;;;4367510;32;315726;-87
2023/09/12 00:03:00;;;;;;;9.85;2.50;;;;;;;;;;4357755;32;316823;-87
2023/09/12 00:05:27;;;;;;;5.43;2.75;;;;;;;;;;4363021;32;316769;-86
2023/09/12 00:07:55;;;;;;;6.80;3.58;;;;;;;;;;4359146;32;316468;-86
2023/09/12 00:10:22;;;;;;;4.90;2.45;;;;;;;;;;4366562;32;316718;-87
2023/09/12 00:12:51;;;;;;;6.75;2.60;;;;;;;;;;4367694;32;316715;-87
2023/09/12 00:15:19;;;;;;;7.03;2.70;;;;;;;;;;4351524;32;415870;-86
2023/09/12 00:17:48;;;;;;;7.10;3.40;;;;;;;;;;4368216;32;316654;-88
2023/09/12 00:20:16;;;;;;;7.35;2.60;;;;;;;;;;4355164;32;317173;-86
2023/09/12 00:22:43;;;;;;;3.78;2.67;;;;;;;;;;4365178;32;316722;-87
2023/09/12 00:25:15;;;;;;;6.60;3.30;;;;;;;;;;4356494;32;316800;-87
2023/09/12 00:27:43;;;;;;;3.55;2.85;;;;;;;;;;4368448;32;317143;-87
2023/09/12 00:30:13;;;;;;;8.07;3.00;;;;;;;;;;4348334;32;338331;-87
2023/09/12 00:32:40;;;;;;;11.80;3.58;;;;;;;;;;4367127;32;316375;-86
2023/09/12 00:35:09;;;;;;;5.47;3.37;;;;;;;;;;4355783;32;317997;-88
2023/09/12 00:37:36;;;;;;;5.12;2.78;;;;;;;;;;4365693;32;316669;-86
2023/09/12 00:40:05;;;;;;;4.18;2.75;;;;;;;;;;4355819;32;316788;-87
2023/09/12 00:42:32;;;;;;;5.07;3.05;;;;;;;;;;4365628;32;348937;-87
2023/09/12 00:45:00;;;;;;;10.32;4.40;;;;;;;;;;4357656;32;316992;-87
2023/09/12 00:47:31;;;;;;;12.90;3.58;;;;;;;;;;4362278;32;316610;-86
2023/09/12 00:50:00;;;;;;;8.05;3.17;;;;;;;;;;4355023;32;316598;-86
2023/09/12 00:52:29;;;;;;;8.88;2.97;;;;;;;;;;4367523;32;316744;-87
2023/09/12 00:54:57;;;;;;;8.13;3.45;;;;;;;;;;4356566;32;315411;-86
2023/09/12 00:57:25;;;;;;;5.28;3.28;;;;;;;;;;4341792;32;316585;-87
2023/09/12 00:59:55;;;;;;;8.43;3.40;;;;;;;;;;4358807;32;316428;-88
2023/09/12 01:02:23;;;;;;;8.32;3.80;;;;;;;;;;4369745;32;316582;-87
2023/09/12 01:04:52;;;;;;;5.95;2.95;;;;;;;;;;4370948;32;316602;-88
2023/09/12 01:07:20;;;;;;;4.68;2.60;;;;;;;;;;4341005;32;415796;-86
2023/09/12 01:09:47;;;;;;;5.82;3.12;;;;;;;;;;4369302;32;315514;-87
2023/09/12 01:12:15;;;;;;;4.22;2.35;;;;;;;;;;4361140;32;316908;-85
2023/09/12 01:14:43;;;;;;;5.12;2.45;;;;;;;;;;4370415;32;316698;-87
2023/09/12 01:17:10;;;;;;;4.35;2.83;;;;;;;;;;4353667;32;316709;-86
2023/09/12 01:19:38;;;;;;;5.40;3.03;;;;;;;;;;4371156;32;316593;-87
2023/09/12 01:22:28;;;;;;;6.80;3.72;;;;;;;;;;4352796;32;316528;-89
2023/09/12 01:25:32;;;;;;;10.10;3.67;;;;;;;;;;4354944;32;325259;-88
2023/09/12 01:28:04;;;;;;;4.93;3.35;;;;;;;;;;4321926;32;316588;-86
2023/09/12 01:30:36;;;;;;;6.78;4.12;;;;;;;;;;4366458;32;316654;-88
2023/09/12 01:33:05;;;;;;;8.38;3.20;;;;;;;;;;4360108;32;316607;-88
2023/09/12 01:35:32;;;;;;;4.43;2.92;;;;;;;;;;4366024;32;316544;-86
2023/09/12 01:38:00;;;;;;;6.30;3.20;;;;;;;;;;4357594;32;316755;-86
2023/09/12 01:40:34;;;;;;;5.50;3.00;;;;;;;;;;4368426;32;316612;-87
2023/09/12 01:43:06;;;;;;;3.70;2.67;;;;;;;;;;4358537;32;316624;-87
2023/09/12 01:45:36;;;;;;;5.47;2.85;;;;;;;;;;4366434;32;315563;-87
2023/09/12 01:48:05;;;;;;;4.82;2.65;;;;;;;;;;4359463;32;315671;-87
2023/09/12 01:50:34;;;;;;;5.47;3.12;;;;;;;;;;4369184;32;315548;-87
2023/09/12 01:53:02;;;;;;;11.12;3.65;;;;;;;;;;4361848;32;316646;-88
2023/09/12 01:55:30;;;;;;;9.77;3.00;;;;;;;;;;4367347;32;317672;-86
2023/09/12 01:57:58;;;;;;;5.78;2.65;;;;;;;;;;4359324;32;316557;-87
2023/09/12 02:00:27;;;;;;;8.75;3.53;;;;;;;;;;4369639;32;316530;-87
2023/09/12 02:02:55;;;;;;;14.70;3.72;;;;;;;;;;4357549;32;316709;-87
2023/09/12 02:05:23;;;;;;;5.20;3.35;;;;;;;;;;4365444;32;317657;-86
2023/09/12 02:07:51;;;;;;;5.85;3.47;;;;;;;;;;4368398;32;316643;-86
2023/09/12 02:10:18;;;;;;;7.32;3.80;;;;;;;;;;4355818;32;417847;-86
2023/09/12 02:12:52;;;;;;;7.60;3.50;;;;;;;;;;4368629;32;316538;-86
2023/09/12 02:15:21;;;;;;;8.23;3.25;;;;;;;;;;4307668;32;417746;-87
2023/09/12 02:17:52;;;;;;;7.35;3.33;;;;;;;;;;4368217;32;316624;-86
2023/09/12 02:20:21;;;;;;;12.57;3.30;;;;;;;;;;4356266;32;419073;-87
2023/09/12 02:22:51;;;;;;;7.95;3.90;;;;;;;;;;4368323;32;317774;-87
2023/09/12 02:25:20;;;;;;;5.72;3.12;;;;;;;;;;4338719;32;387751;-87
2023/09/12 02:27:49;;;;;;;6.10;3.65;;;;;;;;;;4369797;32;317115;-86
2023/09/12 02:30:17;;;;;;;10.27;4.25;;;;;;;;;;4359309;32;317203;-87
2023/09/12 02:32:45;;;;;;;7.00;3.85;;;;;;;;;;4367901;32;317326;-87
2023/09/12 02:35:17;;;;;;;6.03;3.53;;;;;;;;;;4360174;32;317021;-88
2023/09/12 02:37:44;;;;;;;5.60;3.33;;;;;;;;;;4371781;32;316561;-86
2023/09/12 02:40:14;;;;;;;4.93;3.03;;;;;;;;;;4364297;32;316516;-87
2023/09/12 02:42:45;;;;;;;7.05;4.03;;;;;;;;;;4378396;32;316685;-86
2023/09/12 02:45:12;;;;;;;7.07;3.10;;;;;;;;;;4367203;32;316646;-86
2023/09/12 02:47:43;;;;;;;10.73;3.33;;;;;;;;;;4365679;32;316794;-85
2023/09/12 02:50:15;;;;;;;9.77;3.90;;;;;;;;;;4357686;32;317843;-84
2023/09/12 02:52:44;;;;;;;10.27;3.58;;;;;;;;;;4366950;32;316666;-85
2023/09/12 02:55:14;;;;;;;7.00;4.03;;;;;;;;;;4357176;32;318199;-89
2023/09/12 02:57:41;;;;;;;7.47;4.12;;;;;;;;;;4368126;32;358131;-86
2023/09/12 03:00:11;;;;;;;8.45;4.45;;;;;;;;;;4358111;32;316877;-86
2023/09/12 03:02:38;;;;;;;8.85;4.00;;;;;;;;;;4369822;32;317118;-87
2023/09/12 03:05:06;;;;;;;6.32;4.32;;;;;;;;;;4356833;32;317058;-85
2023/09/12 03:07:33;;;;;;;7.05;3.80;;;;;;;;;;4365619;32;316677;-86
2023/09/12 03:10:03;;;;;;;12.43;4.35;;;;;;;;;;4357082;32;316867;-86
2023/09/12 03:12:30;;;;;;;6.85;3.33;;;;;;;;;;4367065;32;317827;-89
2023/09/12 03:14:58;;;;;;;9.65;3.70;;;;;;;;;;4350188;32;316600;-88
2023/09/12 03:17:26;;;;;;;5.95;3.60;;;;;;;;;;4363900;32;316652;-86
2023/09/12 03:19:53;;;;;;;6.85;3.12;;;;;;;;;;4358975;32;316882;-88
2023/09/12 03:22:20;;;;;;;6.57;3.50;;;;;;;;;;4367966;32;316567;-86
2023/09/12 03:24:48;;;;;;;7.45;3.12;;;;;;;;;;4356012;32;317068;-86
2023/09/12 03:27:17;;;;;;;7.25;3.20;;;;;;;;;;4366756;32;316774;-88
2023/09/12 03:29:48;;;;;;;12.15;3.00;;;;;;;;;;4359593;32;317027;-86
2023/09/12 03:32:15;;;;;;;3.75;2.62;;;;;;;;;;4369247;32;318015;-87
2023/09/12 03:34:43;;;;;;;8.75;3.30;;;;;;;;;;4368965;32;317111;-87
2023/09/12 03:37:10;;;;;;;5.28;3.25;;;;;;;;;;4355306;32;386579;-87
2023/09/12 03:39:38;;;;;;;10.15;3.10;;;;;;;;;;4369120;32;317047;-87
2023/09/12 03:42:06;;;;;;;3.97;2.80;;;;;;;;;;4358446;32;317948;-87
2023/09/12 03:44:35;;;;;;;8.40;3.22;;;;;;;;;;4368904;32;316802;-87
2023/09/12 03:47:02;;;;;;;9.73;6.37;;;;;;;;;;4354398;32;319265;-86
2023/09/12 03:49:30;;;;;;;15.40;10.18;;;;;;;;;;4366585;32;316726;-87
2023/09/12 03:51:57;;;;;;;10.55;7.55;;;;;;;;;;4358443;32;318874;-86
2023/09/12 03:54:26;;;;;;;12.50;7.07;;;;;;;;;;4368286;32;317829;-87
2023/09/12 03:56:54;;;;;;;15.43;7.20;;;;;;;;;;4357688;32;318034;-88
2023/09/12 03:59:22;;;;;;;15.93;6.80;;;;;;;;;;4364370;32;317641;-86
2023/09/12 04:01:51;;;;;;;10.48;6.62;;;;;;;;;;4357986;32;318087;-88
2023/09/12 04:04:19;;;;;;;14.48;6.75;;;;;;;;;;4366007;32;343814;-88
2023/09/12 04:06:46;;;;;;;16.70;7.50;;;;;;;;;;4357235;32;317990;-86
2023/09/12 04:09:14;;;;;;;15.48;6.70;;;;;;;;;;4363103;32;317956;-86
2023/09/12 04:11:41;;;;;;;9.20;6.32;;;;;;;;;;4367807;32;317838;-85
2023/09/12 04:14:09;;;;;;;12.93;6.60;;;;;;;;;;4355275;32;387679;-87
2023/09/12 04:16:38;;;;;;;9.50;5.03;;;;;;;;;;4368786;32;317647;-88
2023/09/12 04:19:07;;;;;;;12.90;5.30;;;;;;;;;;4354546;32;316951;-88
2023/09/12 04:21:35;;;;;;;10.73;4.32;;;;;;;;;;4359818;32;317561;-88
2023/09/12 04:24:02;;;;;;;10.32;4.37;;;;;;;;;;4358240;32;317771;-87
2023/09/12 04:26:29;;;;;;;9.40;4.62;;;;;;;;;;4368030;32;317792;-87
2023/09/12 04:28:57;;;;;;;17.05;4.78;;;;;;;;;;4357538;32;316924;-87
2023/09/12 04:31:25;;;;;;;11.40;4.12;;;;;;;;;;4365575;32;317889;-87
2023/09/12 04:33:52;;;;;;;6.93;4.12;;;;;;;;;;4353854;32;318123;-84
2023/09/12 04:36:22;;;;;;;13.35;4.35;;;;;;;;;;4366724;32;315662;-85
2023/09/12 04:38:49;;;;;;;9.15;4.25;;;;;;;;;;4357130;32;318023;-88
2023/09/12 04:41:17;;;;;;;5.82;3.62;;;;;;;;;;4365416;32;316815;-88
2023/09/12 04:43:44;;;;;;;6.22;3.55;;;;;;;;;;4358667;32;316861;-81
2023/09/12 04:46:12;;;;;;;10.90;4.78;;;;;;;;;;4368672;32;316953;-80
2023/09/12 04:48:39;;;;;;;13.45;3.87;;;;;;;;;;4368186;32;318004;-81
2023/09/12 04:51:07;;;;;;;14.27;4.30;;;;;;;;;;4353922;32;318005;-81
2023/09/12 04:53:36;;;;;;;14.52;3.35;;;;;;;;;;4367946;32;316686;-81
2023/09/12 04:56:04;;;;;;;12.75;4.12;;;;;;;;;;4357621;32;317786;-81
2023/09/12 04:58:31;;;;;;;10.05;4.62;;;;;;;;;;4366288;32;316676;-80
2023/09/12 05:01:00;;;;;;;7.43;4.18;;;;;;;;;;4355033;32;317911;-83
2023/09/12 05:03:27;;;;;;;9.88;3.37;;;;;;;;;;4368337;32;316925;-82
2023/09/12 05:05:55;;;;;;;21.27;4.30;;;;;;;;;;4356173;32;317167;-82
2023/09/12 05:08:23;;;;;;;9.93;3.60;;;;;;;;;;4366417;32;318048;-82
2023/09/12 05:10:51;;;;;;;12.68;4.45;;;;;;;;;;4354774;32;316952;-86
2023/09/12 05:13:19;;;;;;;7.62;3.62;;;;;;;;;;4359015;32;348570;-82
2023/09/12 05:15:48;;;;;;;12.18;4.97;;;;;;;;;;4358109;32;315683;-82
2023/09/12 05:18:15;;;;;;;10.25;4.35;;;;;;;;;;4365850;32;317881;-81
2023/09/12 05:20:42;;;;;;;12.37;4.22;;;;;;;;;;4368120;32;317909;-81
2023/09/12 05:23:11;;;;;;;8.10;4.18;;;;;;;;;;4347830;32;420124;-84
2023/09/12 05:25:40;;;;;;;12.07;4.30;;;;;;;;;;4365461;32;316723;-85
2023/09/12 05:28:09;;;;;;;8.98;3.37;;;;;;;;;;4356090;32;318103;-81
2023/09/12 05:30:36;;;;;;;8.13;3.47;;;;;;;;;;4359630;32;316889;-81
2023/09/12 05:33:05;;;;;;;9.68;3.60;;;;;;;;;;4350908;32;316998;-84
2023/09/12 05:35:32;;;;;;;10.82;4.95;;;;;;;;;;4365765;32;317071;-83
2023/09/12 05:38:00;;;;;;;14.48;4.85;;;;;;;;;;4357171;32;318226;-86
2023/09/12 05:40:27;;;;;;;7.82;4.87;;;;;;;;;;4366044;32;317835;-86
2023/09/12 05:42:55;;;;;;;7.85;4.57;;;;;;;;;;4355778;32;317121;-90
2023/09/12 05:45:24;;;;;;;8.38;4.87;;;;;;;;;;4362785;32;316847;-90
2023/09/12 05:47:51;;;;;;;13.52;4.20;;;;;;;;;;4359271;32;317017;-87
2023/09/12 05:50:19;;;;;;;17.15;4.87;;;;;;;;;;4369197;32;317880;-85
2023/09/12 05:52:46;;;;;;;12.68;4.35;;;;;;;;;;4359434;32;317937;-86
2023/09/12 05:55:14;;;;;;;8.48;4.35;;;;;;;;;;4365180;32;317823;-85
2023/09/12 05:57:41;;;;;;;6.62;4.25;;;;;;;;;;4368234;32;316837;-90
2023/09/12 06:00:11;;;;;;;9.07;5.47;;;;;;;;;;4360682;32;316847;-85
2023/09/12 06:02:41;;;;;;;12.70;4.85;;;;;;;;;;4370328;32;316987;-85
2023/09/12 06:05:09;;;;;;;11.55;5.43;;;;;;;;;;4357952;32;318172;-85
2023/09/12 06:07:38;;;;;;;13.02;4.97;;;;;;;;;;4367745;32;317750;-85
2023/09/12 06:10:06;;;;;;;11.45;3.83;;;;;;;;;;4358048;32;318143;-86
2023/09/12 06:12:36;;;;;;;8.50;4.05;;;;;;;;;;4367786;32;317612;-92
2023/09/12 06:15:04;;;;;;;12.45;4.20;;;;;;;;;;4352878;32;316930;-91
2023/09/12 06:17:31;;;;;;;9.80;4.62;;;;;;;;;;4368751;32;317810;-91
2023/09/12 06:20:00;;;;;;;7.18;4.35;;;;;;;;;;4359431;32;317137;-91
2023/09/12 06:22:27;;;;;;;9.38;3.47;;;;;;;;;;4369944;32;316835;-92
2023/09/12 06:24:56;;;;;;;16.45;3.90;;;;;;;;;;4358040;32;316581;-90
2023/09/12 06:27:24;;;;;;;8.00;3.83;;;;;;;;;;4367262;32;317798;-91
2023/09/12 06:29:52;;;;;;;12.02;4.53;;;;;;;;;;4359694;32;316839;-92
2023/09/12 06:32:20;;;;;;;11.23;3.90;;;;;;;;;;4369123;32;317567;-90
2023/09/12 06:34:48;;;;;;;10.82;3.95;;;;;;;;;;4358687;32;317779;-90
2023/09/12 06:37:18;;;;;;;13.00;4.10;;;;;;;;;;4366350;32;317745;-91
2023/09/12 06:39:45;;;;;;;7.05;3.33;;;;;;;;;;4359252;32;317752;-91
2023/09/12 06:42:13;;;;;;;12.50;3.78;;;;;;;;;;4368415;32;316724;-89
2023/09/12 06:44:40;;;;;;;11.18;3.87;;;;;;;;;;4368021;32;317645;-90
2023/09/12 06:47:09;;;;;;;6.35;3.60;;;;;;;;;;4356086;32;317627;-87
2023/09/12 06:49:37;;;;;;;6.90;3.58;;;;;;;;;;4366878;32;316492;-90
2023/09/12 06:52:05;;;;;;;11.82;4.60;;;;;;;;;;4356606;32;316902;-87
2023/09/12 06:54:36;;;;;;;9.30;4.43;;;;;;;;;;4368129;32;317802;-89
2023/09/12 06:57:03;;;;;;;13.07;4.53;;;;;;;;;;4353003;32;316812;-87
2023/09/12 06:59:31;;;;;;;11.27;4.20;;;;;;;;;;4367606;32;317883;-89
2023/09/12 07:01:58;;;;;;;5.72;3.33;;;;;;;;;;4359696;32;317741;-95
2023/09/12 07:04:26;;;;;;;10.90;3.65;;;;;;;;;;4370144;32;316607;-89
2023/09/12 07:06:54;;;;;;;8.27;4.03;;;;;;;;;;4358940;32;317811;-88
2023/09/12 07:09:22;;;;;;;29.17;10.23;;;;;;;;;;4367053;32;316642;-88
2023/09/12 07:11:50;;;;;;;9.15;5.12;;;;;;;;;;4358280;32;318865;-88
2023/09/12 07:14:18;;;;;;;5.05;3.97;;;;;;;;;;4368327;32;321343;-88
2023/09/12 07:16:45;;;;;;;18.77;4.65;;;;;;;;;;4357974;32;316708;-88
2023/09/12 07:19:13;;;;;;;9.55;3.85;;;;;;;;;;4366329;32;317769;-89
2023/09/12 07:21:40;;;;;;;11.00;3.97;;;;;;;;;;4369460;32;316544;-88
2023/09/12 07:24:08;;;;;;;10.57;4.47;;;;;;;;;;4358108;32;317877;-88
2023/09/12 07:26:36;;;;;;;6.93;4.78;;;;;;;;;;4367478;32;317844;-86
2023/09/12 07:29:05;;;;;;;11.00;3.58;;;;;;;;;;4354690;32;316899;-90
2023/09/12 07:31:32;;;;;;;12.23;3.92;;;;;;;;;;4365356;32;317814;-87
2023/09/12 07:34:00;;;;;;;10.52;4.37;;;;;;;;;;4358563;32;317810;-88
2023/09/12 07:36:28;;;;;;;8.02;4.20;;;;;;;;;;4366048;32;317791;-87
2023/09/12 07:38:55;;;;;;;10.83;4.40;;;;;;;;;;4353529;32;356253;-88
2023/09/12 07:41:23;;;;;;;7.05;3.58;;;;;;;;;;4362060;32;317743;-88
2023/09/12 07:43:50;;;;;;;5.93;3.22;;;;;;;;;;4354539;32;316712;-87
2023/09/12 07:46:20;;;;;;;6.45;3.37;;;;;;;;;;4367969;32;316839;-91
2023/09/12 07:48:47;;;;;;;7.93;3.67;;;;;;;;;;4356463;32;316593;-92
2023/09/12 07:51:17;;;;;;;9.13;3.20;;;;;;;;;;4365070;32;317006;-88
2023/09/12 07:53:45;;;;;;;7.97;3.65;;;;;;;;;;4357608;32;316761;-90
2023/09/12 07:56:12;;;;;;;8.38;3.50;;;;;;;;;;4368392;32;316491;-87
2023/09/12 07:58:39;;;;;;;9.05;3.42;;;;;;;;;;4368469;32;317062;-88
2023/09/12 08:01:08;;;;;;;10.35;3.20;;;;;;;;;;4353450;32;316845;-87
2023/09/12 08:03:39;;;;;;;20.10;3.75;;;;;;;;;;4367575;32;358124;-86
2023/09/12 08:06:07;;;;;;;10.25;3.72;;;;;;;;;;4355685;32;317997;-87
2023/09/12 08:08:34;;;;;;;6.37;3.12;;;;;;;;;;4366170;32;317777;-90
2023/09/12 08:11:02;;;;;;;5.43;3.55;;;;;;;;;;4357881;32;316919;-88
2023/09/12 08:13:31;;;;;;;10.43;3.83;;;;;;;;;;4364768;32;316388;-87
2023/09/12 08:15:59;;;;;;;8.25;3.35;;;;;;;;;;4355271;32;317909;-85
2023/09/12 08:18:30;;;;;;;10.27;3.28;;;;;;;;;;4367651;32;317009;-85
2023/09/12 08:20:59;;;;;;;9.37;3.20;;;;;;;;;;4356394;32;352351;-86
2023/09/12 08:23:27;;;;;;;4.87;3.10;;;;;;;;;;4365912;32;316935;-86
2023/09/12 08:25:54;;;;;;;4.62;3.37;;;;;;;;;;4356760;32;316907;-86
2023/09/12 08:28:21;;;;;;;13.18;3.30;;;;;;;;;;4366758;32;316704;-87
2023/09/12 08:30:49;;;;;;;19.50;4.32;;;;;;;;;;4349173;32;317979;-90
2023/09/12 08:33:17;;;;;;;4.60;2.83;;;;;;;;;;4361780;32;317348;-88
2023/09/12 08:35:45;;;;;;;10.80;4.18;;;;;;;;;;4357350;32;316454;-89
2023/09/12 08:38:13;;;;;;;6.00;3.37;;;;;;;;;;4366668;32;317822;-89
2023/09/12 08:40:41;;;;;;;8.00;3.50;;;;;;;;;;4366399;32;316468;-88
2023/09/12 08:43:09;;;;;;;6.55;3.28;;;;;;;;;;4352406;32;316375;-89
2023/09/12 08:45:36;;;;;;;10.65;3.40;;;;;;;;;;4363499;32;316956;-89
2023/09/12 08:48:08;;;;;;;13.48;3.47;;;;;;;;;;4353285;32;317754;-91
2023/09/12 08:50:35;;;;;;;11.77;3.37;;;;;;;;;;4366520;32;317988;-90
2023/09/12 08:53:03;;;;;;;9.93;4.10;;;;;;;;;;4350216;32;317712;-85
2023/09/12 08:55:33;;;;;;;6.68;3.92;;;;;;;;;;4366242;32;316588;-86
2023/09/12 08:58:01;;;;;;;12.05;3.72;;;;;;;;;;4355195;32;316482;-87
2023/09/12 09:00:29;;;;;;;8.68;2.72;;;;;;;;;;4364580;32;317867;-83
2023/09/12 09:03:01;;;;;;;12.20;3.62;;;;;;;;;;4355317;32;316994;-91
2023/09/12 09:05:28;;;;;;;14.95;3.60;;;;;;;;;;4364913;32;350253;-88
2023/09/12 09:07:58;;;;;;;7.43;3.10;;;;;;;;;;4355471;32;317887;-89
2023/09/12 09:10:27;;;;;;;7.85;4.00;;;;;;;;;;4365761;32;316970;-90
2023/09/12 09:12:56;;;;;;;11.87;3.47;;;;;;;;;;4355618;32;330189;-89
2023/09/12 09:15:25;;;;;;;8.57;3.05;;;;;;;;;;4361827;32;335754;-92
2023/09/12 09:17:53;;;;;;;10.63;3.22;;;;;;;;;;4355549;32;316757;-89
2023/09/12 09:20:28;;;;;;;13.48;3.40;;;;;;;;;;4367741;32;317715;-91
2023/09/12 09:23:01;;;;;;;17.08;4.60;;;;;;;;;;4359011;32;317956;-86
2023/09/12 09:25:28;;;;;;;8.80;3.95;;;;;;;;;;4363681;32;317736;-84
2023/09/12 09:27:57;;;;;;;6.75;3.35;;;;;;;;;;4359655;32;316894;-84
2023/09/12 09:30:41;;;;;;;7.47;3.20;;;;;;;;;;4370238;32;316760;-84
2023/09/12 09:33:09;;;;;;;8.52;3.92;;;;;;;;;;4355947;32;316717;-84
2023/09/12 09:35:37;;;;;;;9.82;3.55;;;;;;;;;;4369143;32;316612;-87
2023/09/12 09:38:06;;;;;;;7.65;3.45;;;;;;;;;;4360370;32;316753;-82
2023/09/12 09:40:34;;;;;;;15.02;3.72;;;;;;;;;;4370641;32;316836;-83
2023/09/12 09:43:05;;;;;;;6.28;3.70;;;;;;;;;;4357735;32;318189;-85
2023/09/12 09:45:32;;;;;;;8.25;3.53;;;;;;;;;;4367824;32;316793;-81
2023/09/12 09:48:06;;;;;;;7.03;3.90;;;;;;;;;;4359829;32;316785;-83
2023/09/12 09:50:36;;;;;;;6.53;3.05;;;;;;;;;;4370422;32;316978;-84
2023/09/12 09:53:08;;;;;;;4.90;3.45;;;;;;;;;;4354117;32;316958;-81
2023/09/12 09:55:35;;;;;;;22.85;4.35;;;;;;;;;;4370447;32;316682;-84
2023/09/12 09:58:06;;;;;;;15.70;3.55;;;;;;;;;;4357724;32;318153;-86
2023/09/12 10:00:37;;;;;;;9.30;3.87;;;;;;;;;;4369051;32;318097;-91
2023/09/12 10:03:06;;;;;;;6.72;2.97;;;;;;;;;;4359918;32;316829;-81
2023/09/12 10:05:34;;;;;;;4.62;2.80;;;;;;;;;;4368776;32;316609;-84
2023/09/12 10:08:05;;;;;;;9.32;3.70;;;;;;;;;;4357060;32;316787;-81
2023/09/12 10:10:35;;;;;;;9.00;2.83;;;;;;;;;;4368211;32;316903;-85
2023/09/12 10:13:07;;;;;;;8.40;3.30;;;;;;;;;;4359345;32;316561;-82
2023/09/12 10:15:37;;;;;;;4.62;3.10;;;;;;;;;;4368387;32;316980;-82
2023/09/12 10:18:10;;;;;;;6.45;3.08;;;;;;;;;;4359359;32;316662;-80
2023/09/12 10:20:43;;;;;;;11.70;3.00;;;;;;;;;;4368371;32;316951;-81
2023/09/12 10:23:18;;;;;;;4.78;2.87;;;;;;;;;;4351615;32;417338;-85
2023/09/12 10:25:46;;;;;;;5.05;3.17;;;;;;;;;;4358463;32;316597;-81
2023/09/12 10:28:16;;;;;;;5.57;3.03;;;;;;;;;;4368289;32;316924;-82
2023/09/12 10:30:44;;;;;;;5.68;2.85;;;;;;;;;;4367670;32;316631;-80
2023/09/12 10:33:14;;;;;;;15.30;2.70;;;;;;;;;;4352256;32;386763;-79
2023/09/12 10:35:42;;;;;;;6.97;3.55;;;;;;;;;;4370538;32;317569;-92
2023/09/12 10:38:10;;;;;;;4.28;2.83;;;;;;;;;;4356275;32;415851;-86
2023/09/12 10:40:38;;;;;;;11.32;2.92;;;;;;;;;;4368464;32;315542;-88
2023/09/12 10:43:06;;;;;;;7.72;3.15;;;;;;;;;;4356154;32;317878;-85
2023/09/12 10:45:36;;;;;;;11.30;2.92;;;;;;;;;;4367935;32;316555;-85
2023/09/12 10:48:04;;;;;;;10.60;3.17;;;;;;;;;;4359431;32;317949;-84
2023/09/12 10:50:32;;;;;;;10.68;3.15;;;;;;;;;;4369116;32;317868;-80
2023/09/12 10:53:12;;;;;;;12.68;2.90;;;;;;;;;;4358165;32;317916;-81
2023/09/12 10:55:39;;;;;;;8.27;4.03;;;;;;;;;;4369369;32;317658;-81
2023/09/12 10:58:08;;;;;;;16.05;2.92;;;;;;;;;;4357693;32;316632;-82
2023/09/12 11:00:38;;;;;;;11.88;3.33;;;;;;;;;;4367751;32;316542;-87
2023/09/12 11:03:37;;;;;;;12.80;3.25;;;;;;;;;;4355043;32;318001;-83
2023/09/12 11:06:05;;;;;;;5.97;2.83;;;;;;;;;;4358318;32;317805;-86
2023/09/12 11:08:38;;;;;;;4.32;2.55;;;;;;;;;;4369346;32;316922;-80
2023/09/12 11:11:21;;;;;;;5.82;2.78;;;;;;;;;;4352894;32;328760;-81
2023/09/12 11:14:04;;;;;;;8.77;2.55;;;;;;;;;;4356957;32;316904;-85
2023/09/12 11:16:34;;;;;;;7.18;2.78;;;;;;;;;;4366437;32;316580;-82
2023/09/12 11:19:15;;;;;;;12.13;2.95;;;;;;;;;;4353986;32;316824;-82
2023/09/12 11:21:45;;;;;;;6.75;3.17;;;;;;;;;;4368100;32;317629;-82
2023/09/12 11:24:12;;;;;;;11.18;3.35;;;;;;;;;;4354511;32;416983;-81
2023/09/12 11:27:05;;;;;;;8.50;2.90;;;;;;;;;;4367319;32;317875;-81
2023/09/12 11:29:37;;;;;;;7.43;3.10;;;;;;;;;;4351779;32;416945;-81
2023/09/12 11:32:07;;;;;;;8.55;2.67;;;;;;;;;;4356704;32;316548;-82
2023/09/12 11:34:38;;;;;;;7.03;2.42;;;;;;;;;;4368919;32;316951;-85
2023/09/12 11:37:06;;;;;;;17.08;3.40;;;;;;;;;;4352834;32;316789;-86
2023/09/12 11:39:35;;;;;;;9.13;2.80;;;;;;;;;;4368558;32;317964;-83
2023/09/12 11:42:04;;;;;;;5.40;2.87;;;;;;;;;;4356639;32;316733;-81
2023/09/12 11:44:32;;;;;;;13.30;3.50;;;;;;;;;;4369375;32;315545;-84
2023/09/12 11:47:06;;;;;;;9.27;2.60;;;;;;;;;;4351199;32;346836;-82
2023/09/12 11:49:38;;;;;;;13.55;3.72;;;;;;;;;;4368352;32;316792;-82
2023/09/12 11:52:10;;;;;;;6.20;2.05;;;;;;;;;;4358172;32;317764;-83
2023/09/12 11:54:37;;;;;;;7.32;2.75;;;;;;;;;;4367314;32;316910;-86
2023/09/12 11:57:08;;;;;;;14.55;2.60;;;;;;;;;;4353685;32;316831;-83
2023/09/12 11:59:39;;;;;;;9.00;2.45;;;;;;;;;;4368868;32;317630;-82
2023/09/12 12:02:08;;;;;;;15.68;4.10;;;;;;;;;;4356035;32;316860;-86
2023/09/12 12:04:37;;;;;;;8.48;3.08;;;;;;;;;;4365147;32;318068;-84
2023/09/12 12:07:05;;;;;;;10.02;3.25;;;;;;;;;;4350058;32;316833;-86
2023/09/12 12:09:34;;;;;;;6.62;2.75;;;;;;;;;;4368312;32;317672;-81
2023/09/12 12:12:09;;;;;;;7.78;2.67;;;;;;;;;;4357438;32;316638;-81
2023/09/12 12:14:37;;;;;;;5.90;3.05;;;;;;;;;;4368773;32;316819;-87
2023/09/12 12:17:09;;;;;;;12.88;2.95;;;;;;;;;;4353243;32;357640;-82
2023/09/12 12:19:39;;;;;;;7.35;2.53;;;;;;;;;;4366432;32;317683;-86
2023/09/12 12:22:07;;;;;;;12.60;2.40;;;;;;;;;;4357677;32;316858;-80
2023/09/12 12:24:41;;;;;;;9.23;2.50;;;;;;;;;;4366746;32;317822;-83
2023/09/12 12:27:11;;;;;;;14.90;3.03;;;;;;;;;;4352970;32;317201;-81
2023/09/12 12:29:40;;;;;;;4.85;2.30;;;;;;;;;;4367490;32;317775;-81
2023/09/12 12:32:09;;;;;;;13.35;3.20;;;;;;;;;;4342374;32;316943;-80
2023/09/12 12:34:38;;;;;;;11.60;3.25;;;;;;;;;;4365974;32;317759;-81
2023/09/12 12:37:06;;;;;;;9.27;2.50;;;;;;;;;;4350675;32;317639;-83
2023/09/12 12:39:34;;;;;;;6.43;2.40;;;;;;;;;;4368562;32;316740;-79
2023/09/12 12:42:03;;;;;;;9.40;2.53;;;;;;;;;;4356730;32;316714;-82
2023/09/12 12:44:40;;;;;;;13.48;3.00;;;;;;;;;;4367786;32;316829;-80
2023/09/12 12:47:11;;;;;;;5.22;2.30;;;;;;;;;;4354634;32;326170;-81
2023/09/12 12:49:40;;;;;;;12.02;2.87;;;;;;;;;;4366953;32;316764;-81
2023/09/12 12:52:11;;;;;;;6.78;3.05;;;;;;;;;;4356636;32;317822;-81
2023/09/12 12:54:38;;;;;;;11.68;3.05;;;;;;;;;;4366697;32;316822;-87
2023/09/12 12:57:06;;;;;;;10.07;2.87;;;;;;;;;;4353065;32;318018;-82
2023/09/12 12:59:36;;;;;;;5.87;1.90;;;;;;;;;;4367785;32;317826;-80
2023/09/12 13:02:04;;;;;;;11.50;3.22;;;;;;;;;;4356063;32;316949;-84
2023/09/12 13:04:38;;;;;;;7.82;2.53;;;;;;;;;;4367323;32;317996;-86
2023/09/12 13:07:07;;;;;;;9.25;2.72;;;;;;;;;;4352825;32;317142;-86
2023/09/12 13:09:34;;;;;;;10.20;2.95;;;;;;;;;;4364905;32;316610;-85
2023/09/12 13:12:02;;;;;;;5.35;2.40;;;;;;;;;;4356802;32;317781;-86
2023/09/12 13:14:31;;;;;;;8.85;3.75;;;;;;;;;;4367065;32;316765;-86
2023/09/12 13:17:00;;;;;;;5.97;2.75;;;;;;;;;;4356474;32;316959;-85
2023/09/12 13:19:27;;;;;;;12.93;2.50;;;;;;;;;;4367716;32;316843;-87
2023/09/12 13:21:55;;;;;;;9.35;3.45;;;;;;;;;;4356234;32;318073;-87
2023/09/12 13:24:24;;;;;;;5.40;2.17;;;;;;;;;;4367042;32;315689;-86
2023/09/12 13:26:51;;;;;;;12.18;3.15;;;;;;;;;;4357168;32;317075;-87
2023/09/12 13:29:19;;;;;;;7.32;2.55;;;;;;;;;;4363941;32;317745;-86
2023/09/12 13:31:46;;;;;;;7.45;2.90;;;;;;;;;;4350677;32;316857;-87
2023/09/12 13:34:14;;;;;;;9.15;2.30;;;;;;;;;;4366783;32;316595;-87
2023/09/12 13:36:41;;;;;;;8.35;2.85;;;;;;;;;;4368386;32;316692;-85
2023/09/12 13:39:09;;;;;;;6.28;2.83;;;;;;;;;;4352522;32;316816;-85
2023/09/12 13:41:39;;;;;;;9.43;3.47;;;;;;;;;;4364851;32;316803;-85
2023/09/12 13:44:06;;;;;;;11.05;3.15;;;;;;;;;;4357581;32;316914;-84
2023/09/12 13:46:34;;;;;;;7.32;2.78;;;;;;;;;;4365570;32;318135;-84
2023/09/12 13:49:03;;;;;;;13.35;2.53;;;;;;;;;;4354091;32;316931;-85
2023/09/12 13:51:30;;;;;;;8.55;2.67;;;;;;;;;;4366686;32;317874;-85
2023/09/12 13:53:58;;;;;;;12.37;3.17;;;;;;;;;;4356558;32;316897;-85
2023/09/12 13:56:25;;;;;;;9.93;4.15;;;;;;;;;;4366371;32;317835;-87
2023/09/12 13:58:55;;;;;;;7.60;3.03;;;;;;;;;;4356270;32;317003;-84
2023/09/12 14:01:23;;;;;;;16.42;2.80;;;;;;;;;;4362151;32;316201;-86
2023/09/12 14:03:50;;;;;;;6.93;2.83;;;;;;;;;;4356832;32;317781;-87
2023/09/12 14:06:17;;;;;;;7.60;3.35;;;;;;;;;;4364497;32;317365;-87
2023/09/12 14:08:45;;;;;;;11.45;3.55;;;;;;;;;;4359531;32;317162;-86
2023/09/12 14:11:12;;;;;;;10.70;2.42;;;;;;;;;;4365551;32;318046;-87
2023/09/12 14:13:40;;;;;;;10.32;2.72;;;;;;;;;;4367560;32;318219;-88
2023/09/12 14:16:08;;;;;;;8.73;2.55;;;;;;;;;;4358206;32;317946;-88
2023/09/12 14:18:37;;;;;;;5.95;2.45;;;;;;;;;;4369604;32;316846;-88
2023/09/12 14:21:04;;;;;;;12.90;2.53;;;;;;;;;;4357926;32;316863;-86
2023/09/12 14:23:32;;;;;;;4.80;2.17;;;;;;;;;;4364918;32;317646;-83
2023/09/12 14:25:59;;;;;;;7.85;3.53;;;;;;;;;;4357901;32;316805;-84
2023/09/12 14:28:28;;;;;;;6.95;2.75;;;;;;;;;;4368955;32;316559;-84
2023/09/12 14:30:55;;;;;;;14.57;2.50;;;;;;;;;;4358745;32;316622;-84
2023/09/12 14:33:25;;;;;;;11.02;3.30;;;;;;;;;;4365854;32;318045;-84
2023/09/12 14:35:52;;;;;;;5.20;2.55;;;;;;;;;;4356932;32;317942;-85